Time;durP1;ratioP1;P1;durP2;ratioP2;P2;SDS_P1;SDS_P2;PMS_P1;PMS_P2;Temp;Humidity;BMP_temperature;BMP_pressure;BME280_temperature;BME280_humidity;BME280_pressure;Samples;Min_cycle;Max_cycle;Signal;HPM_P1;HPM_P2
2023/05/20 00:00:23;;;;;;;11.57;8.35;;;13.20;99.90;;;;;;7605272;19;20057;-82
2023/05/20 00:02:56;;;;;;;31.00;10.17;;;13.20;99.90;;;;;;7606570;19;20018;-81
2023/05/20 00:05:29;;;;;;;11.57;8.20;;;13.10;99.90;;;;;;7648842;19;20054;-81
2023/05/20 00:08:06;;;;;;;10.20;8.68;;;13.10;99.90;;;;;;7645533;19;19998;-81
2023/05/20 00:10:38;;;;;;;15.20;8.77;;;13.10;99.90;;;;;;7641976;19;20019;-81
2023/05/20 00:13:11;;;;;;;14.20;8.93;;;13.20;99.90;;;;;;7635352;19;20031;-82
2023/05/20 00:15:44;;;;;;;12.02;8.32;;;13.10;99.90;;;;;;7638802;19;20043;-82
2023/05/20 00:18:16;;;;;;;12.93;8.77;;;13.20;99.90;;;;;;7626538;19;20024;-82
2023/05/20 00:20:49;;;;;;;12.82;8.57;;;13.10;99.90;;;;;;7604101;19;20749;-82
2023/05/20 00:23:21;;;;;;;24.10;9.63;;;13.00;99.90;;;;;;7607911;19;20038;-81
2023/05/20 00:25:53;;;;;;;14.25;9.25;;;13.10;99.90;;;;;;7598260;19;20026;-82
2023/05/20 00:28:26;;;;;;;11.73;8.80;;;13.10;99.90;;;;;;7598795;19;20026;-82
2023/05/20 00:30:59;;;;;;;13.87;9.07;;;13.00;99.90;;;;;;7599958;19;20513;-81
2023/05/20 00:33:31;;;;;;;17.65;8.82;;;13.10;99.90;;;;;;7602323;19;20010;-82
2023/05/20 00:36:04;;;;;;;13.57;9.25;;;13.00;99.90;;;;;;7605084;19;20010;-81
2023/05/20 00:38:36;;;;;;;14.52;9.27;;;13.00;99.90;;;;;;7605169;19;20022;-81
2023/05/20 00:41:09;;;;;;;12.75;8.95;;;13.00;99.90;;;;;;7596965;19;21230;-82
2023/05/20 00:43:41;;;;;;;11.13;8.38;;;13.00;99.90;;;;;;7611468;19;20010;-82
2023/05/20 00:46:14;;;;;;;11.32;8.52;;;13.00;99.90;;;;;;7602378;19;20018;-82
2023/05/20 00:48:46;;;;;;;13.52;9.30;;;13.00;99.90;;;;;;7610386;19;20643;-82
2023/05/20 00:51:19;;;;;;;10.77;8.05;;;13.00;99.90;;;;;;7607529;19;20630;-82
2023/05/20 00:53:53;;;;;;;13.70;9.57;;;13.00;99.90;;;;;;7594317;19;21120;-81
2023/05/20 00:56:25;;;;;;;15.02;9.95;;;13.00;99.90;;;;;;7601387;19;20022;-81
2023/05/20 00:58:58;;;;;;;14.23;9.13;;;13.00;99.90;;;;;;7601041;19;20486;-81
2023/05/20 01:01:31;;;;;;;12.20;9.38;;;13.00;99.90;;;;;;7603901;19;20022;-82
2023/05/20 01:04:04;;;;;;;12.10;9.25;;;12.90;99.90;;;;;;7596935;19;20015;-81
2023/05/20 01:06:38;;;;;;;16.10;9.32;;;12.90;99.90;;;;;;7608604;19;20022;-82
2023/05/20 01:09:12;;;;;;;13.82;9.20;;;12.90;99.90;;;;;;7594479;19;20014;-82
2023/05/20 01:11:52;;;;;;;11.25;8.85;;;12.90;99.90;;;;;;7598125;19;20102;-81
2023/05/20 01:14:27;;;;;;;14.45;9.80;;;12.90;99.90;;;;;;7596065;19;20022;-80
2023/05/20 01:17:08;;;;;;;12.90;9.60;;;12.90;99.90;;;;;;7604269;19;20015;-82
2023/05/20 01:19:44;;;;;;;13.10;9.32;;;12.90;99.90;;;;;;7610104;19;20029;-82
2023/05/20 01:22:17;;;;;;;13.63;9.80;;;12.90;99.90;;;;;;7599337;19;20019;-83
2023/05/20 01:24:52;;;;;;;14.48;10.15;;;12.90;99.90;;;;;;7592042;19;20018;-82
2023/05/20 01:27:24;;;;;;;14.18;10.40;;;12.90;99.90;;;;;;7596502;19;20019;-82
2023/05/20 01:29:56;;;;;;;17.42;10.88;;;12.90;99.90;;;;;;7598716;19;20011;-82
2023/05/20 01:32:37;;;;;;;16.58;10.82;;;12.90;99.90;;;;;;7599681;19;20045;-82
2023/05/20 01:35:12;;;;;;;13.20;10.60;;;12.90;99.90;;;;;;7603609;19;20010;-82
2023/05/20 01:37:48;;;;;;;15.60;11.30;;;12.90;99.90;;;;;;7601212;19;20018;-82
2023/05/20 01:40:22;;;;;;;19.52;11.80;;;12.90;99.90;;;;;;7606691;19;20090;-82
2023/05/20 01:42:57;;;;;;;18.08;10.80;;;12.90;99.90;;;;;;7602452;19;20051;-82
2023/05/20 01:45:30;;;;;;;16.83;10.90;;;12.90;99.90;;;;;;7598877;19;20029;-82
2023/05/20 01:48:03;;;;;;;14.45;10.15;;;12.90;99.90;;;;;;7591624;19;20018;-82
2023/05/20 01:50:37;;;;;;;13.65;9.68;;;12.90;99.90;;;;;;7591114;19;20014;-82
2023/05/20 01:53:09;;;;;;;15.27;9.93;;;12.80;99.90;;;;;;7594943;19;20019;-82
2023/05/20 01:55:41;;;;;;;15.10;10.18;;;12.80;99.90;;;;;;7585732;19;20105;-82
2023/05/20 01:58:14;;;;;;;14.85;10.57;;;12.80;99.90;;;;;;7589238;19;20113;-81
2023/05/20 02:00:46;;;;;;;16.75;11.18;;;12.80;99.90;;;;;;7586929;19;20023;-81
2023/05/20 02:03:18;;;;;;;16.60;11.45;;;12.80;99.90;;;;;;7589379;19;20010;-82
2023/05/20 02:05:50;;;;;;;17.52;11.90;;;12.70;99.90;;;;;;7600460;19;20101;-82
2023/05/20 02:08:23;;;;;;;16.17;10.40;;;12.70;99.90;;;;;;7570626;19;20578;-82
2023/05/20 02:10:55;;;;;;;15.38;11.57;;;12.70;99.90;;;;;;7592235;19;20010;-82
2023/05/20 02:13:27;;;;;;;15.45;11.85;;;12.70;99.90;;;;;;7595505;19;20041;-82
2023/05/20 02:15:59;;;;;;;16.73;11.32;;;12.70;99.90;;;;;;7599608;19;20030;-82
2023/05/20 02:18:34;;;;;;;22.17;12.38;;;12.70;99.90;;;;;;7577348;19;20030;-82
2023/05/20 02:21:06;;;;;;;17.40;12.43;;;12.80;99.90;;;;;;7601052;19;20486;-82
2023/05/20 02:23:38;;;;;;;20.77;12.25;;;12.70;99.90;;;;;;7611200;19;20025;-82
2023/05/20 02:26:11;;;;;;;19.40;13.13;;;12.70;99.90;;;;;;7606234;19;20682;-82
2023/05/20 02:28:45;;;;;;;20.90;13.55;;;12.70;99.90;;;;;;7600992;19;20051;-82
2023/05/20 02:31:18;;;;;;;20.17;13.68;;;12.70;99.90;;;;;;7582154;19;20014;-82
2023/05/20 02:33:50;;;;;;;23.00;15.02;;;12.70;99.90;;;;;;7599124;19;20022;-82
2023/05/20 02:36:26;;;;;;;22.58;15.15;;;12.70;99.90;;;;;;7607382;19;20019;-82
2023/05/20 02:39:00;;;;;;;22.25;14.60;;;12.60;99.90;;;;;;7588618;19;20779;-82
2023/05/20 02:41:32;;;;;;;24.42;16.08;;;12.70;99.90;;;;;;7599278;19;20011;-82
2023/05/20 02:44:05;;;;;;;23.63;15.90;;;12.70;99.90;;;;;;7599716;19;20029;-81
2023/05/20 02:46:37;;;;;;;29.80;17.48;;;12.70;99.90;;;;;;7604749;19;20007;-82
2023/05/20 02:49:10;;;;;;;27.47;16.67;;;12.70;99.90;;;;;;7605279;19;20034;-82
2023/05/20 02:51:42;;;;;;;28.58;16.40;;;12.60;99.90;;;;;;7601751;19;20019;-81
2023/05/20 02:54:15;;;;;;;24.73;15.77;;;12.60;99.90;;;;;;7604894;19;20374;-82
2023/05/20 02:56:47;;;;;;;26.75;16.17;;;12.60;99.90;;;;;;7591445;19;20521;-82
2023/05/20 02:59:19;;;;;;;31.20;17.23;;;12.60;99.90;;;;;;7582679;19;20026;-82
2023/05/20 03:01:52;;;;;;;25.85;17.17;;;12.60;99.90;;;;;;7558736;19;20022;-82
2023/05/20 03:04:25;;;;;;;27.58;17.35;;;12.50;99.90;;;;;;7570204;19;20086;-82
2023/05/20 03:06:58;;;;;;;31.35;18.10;;;12.50;99.90;;;;;;7579289;19;20061;-83
2023/05/20 03:09:30;;;;;;;23.73;16.42;;;12.50;99.90;;;;;;7589986;19;20018;-82
2023/05/20 03:12:03;;;;;;;60.15;18.27;;;12.60;99.90;;;;;;7588344;19;20135;-82
2023/05/20 03:14:36;;;;;;;25.05;16.48;;;12.60;99.90;;;;;;7592424;19;20862;-82
2023/05/20 03:17:09;;;;;;;26.55;16.05;;;12.70;99.90;;;;;;7594445;19;20562;-82
2023/05/20 03:19:41;;;;;;;27.17;16.13;;;12.60;99.90;;;;;;7593807;19;20026;-82
2023/05/20 03:22:14;;;;;;;27.05;16.98;;;12.60;99.90;;;;;;7571252;19;21038;-83
2023/05/20 03:24:47;;;;;;;27.33;16.10;;;12.60;99.90;;;;;;7581850;19;20018;-82
2023/05/20 03:27:20;;;;;;;25.38;15.35;;;12.60;99.90;;;;;;7603307;19;20022;-83
2023/05/20 03:29:57;;;;;;;28.77;16.98;;;12.60;99.90;;;;;;7616535;19;20010;-82
2023/05/20 03:32:30;;;;;;;29.75;17.88;;;12.60;99.90;;;;;;7609585;19;20018;-82
2023/05/20 03:35:02;;;;;;;33.90;19.88;;;12.60;99.90;;;;;;7597481;19;20033;-82
2023/05/20 03:37:35;;;;;;;32.58;19.88;;;12.60;99.90;;;;;;7603490;19;20026;-83
2023/05/20 03:40:11;;;;;;;34.93;20.50;;;12.60;99.90;;;;;;7620310;19;20038;-82
2023/05/20 03:42:44;;;;;;;35.63;19.10;;;12.60;99.90;;;;;;7651311;19;20018;-83
2023/05/20 03:45:18;;;;;;;43.03;22.80;;;12.60;99.90;;;;;;7639818;19;20021;-82
2023/05/20 03:48:06;;;;;;;42.45;21.48;;;12.60;99.90;;;;;;7650865;19;20321;-83
2023/05/20 03:50:39;;;;;;;41.47;22.40;;;12.60;99.90;;;;;;7638582;19;20015;-81
2023/05/20 03:53:12;;;;;;;47.10;25.00;;;12.60;99.90;;;;;;7640949;19;20035;-83
2023/05/20 03:55:45;;;;;;;48.58;24.70;;;12.60;99.90;;;;;;7634175;19;20018;-83
2023/05/20 03:58:20;;;;;;;42.25;23.17;;;12.60;99.90;;;;;;7625603;19;20023;-82
2023/05/20 04:00:54;;;;;;;62.22;25.48;;;12.60;99.90;;;;;;7586972;19;20018;-82
2023/05/20 04:03:27;;;;;;;37.67;22.13;;;12.70;99.90;;;;;;7596213;19;20018;-83
2023/05/20 04:06:00;;;;;;;46.42;23.83;;;12.60;99.90;;;;;;7608323;19;20601;-83
2023/05/20 04:08:35;;;;;;;46.25;24.52;;;12.70;99.90;;;;;;7595462;19;20807;-83
2023/05/20 04:11:07;;;;;;;45.05;24.15;;;12.70;99.90;;;;;;7597106;19;20053;-82
2023/05/20 04:13:40;;;;;;;46.75;25.73;;;12.70;99.90;;;;;;7607739;19;20050;-83
2023/05/20 04:16:13;;;;;;;45.63;25.03;;;12.70;99.90;;;;;;7611112;19;20010;-82
2023/05/20 04:18:47;;;;;;;49.92;26.75;;;12.70;99.90;;;;;;7604669;19;20440;-82
2023/05/20 04:21:19;;;;;;;46.53;26.92;;;12.60;99.90;;;;;;7596169;19;20014;-83
2023/05/20 04:23:52;;;;;;;55.63;28.03;;;12.70;99.90;;;;;;7596796;19;20470;-83
2023/05/20 04:26:26;;;;;;;45.42;26.25;;;12.70;99.90;;;;;;7601831;19;20571;-82
2023/05/20 04:29:00;;;;;;;51.28;29.08;;;12.70;99.90;;;;;;7605814;19;20119;-83
2023/05/20 04:31:32;;;;;;;54.63;28.88;;;12.80;99.90;;;;;;7604600;19;20018;-82
2023/05/20 04:34:04;;;;;;;51.00;27.98;;;12.70;99.90;;;;;;7605318;19;20014;-82
2023/05/20 04:36:37;;;;;;;47.80;26.45;;;12.80;99.90;;;;;;7595203;19;20018;-82
2023/05/20 04:39:09;;;;;;;59.80;24.25;;;12.80;99.90;;;;;;7605536;19;20025;-82
2023/05/20 04:41:42;;;;;;;41.97;22.70;;;12.70;99.90;;;;;;7609235;19;20014;-82
2023/05/20 04:44:14;;;;;;;37.65;21.55;;;12.80;99.90;;;;;;7605002;19;20614;-83
2023/05/20 04:46:47;;;;;;;47.05;24.38;;;12.80;99.90;;;;;;7607898;19;20043;-83
2023/05/20 04:49:19;;;;;;;37.83;21.65;;;12.80;99.90;;;;;;7604404;19;20018;-83
2023/05/20 04:51:51;;;;;;;37.00;20.88;;;12.80;99.90;;;;;;7603923;19;20399;-82
2023/05/20 04:54:24;;;;;;;43.15;23.33;;;12.80;99.90;;;;;;7598280;19;20090;-83
2023/05/20 04:56:56;;;;;;;42.88;24.20;;;12.70;99.90;;;;;;7604288;19;20089;-83
2023/05/20 04:59:28;;;;;;;49.30;26.58;;;12.80;99.90;;;;;;7605595;19;20078;-83
2023/05/20 05:02:00;;;;;;;49.15;26.70;;;12.70;99.90;;;;;;7580961;19;20044;-83
2023/05/20 05:04:33;;;;;;;50.78;28.05;;;12.70;99.90;;;;;;7594928;19;20014;-82
2023/05/20 05:07:05;;;;;;;54.53;28.58;;;12.70;99.90;;;;;;7588617;19;20418;-83
2023/05/20 05:09:37;;;;;;;54.60;29.42;;;12.70;99.90;;;;;;7596051;19;20018;-83
2023/05/20 05:12:10;;;;;;;55.03;29.05;;;12.60;99.90;;;;;;7555846;19;20010;-82
2023/05/20 05:14:42;;;;;;;53.33;28.77;;;12.70;99.90;;;;;;7563754;19;21249;-83
2023/05/20 05:17:15;;;;;;;55.25;27.60;;;12.70;99.90;;;;;;7575924;19;20052;-82
2023/05/20 05:19:47;;;;;;;57.67;28.05;;;12.70;99.90;;;;;;7600924;19;20031;-83
2023/05/20 05:22:19;;;;;;;54.80;28.55;;;12.80;99.90;;;;;;7573919;19;20058;-83
2023/05/20 05:24:54;;;;;;;;;;;12.80;99.90;;;;;;7596809;19;20086;-83
2023/05/20 05:27:26;;;;;;;59.97;28.95;;;12.70;99.90;;;;;;7587673;19;19923;-83
2023/05/20 05:29:59;;;;;;;54.53;27.80;;;12.70;99.90;;;;;;7568908;19;20022;-83
2023/05/20 05:32:32;;;;;;;59.60;31.30;;;12.70;99.90;;;;;;7579423;19;20024;-83
2023/05/20 05:35:05;;;;;;;54.73;30.03;;;12.80;99.90;;;;;;7586321;19;20014;-83
2023/05/20 05:37:39;;;;;;;59.72;29.70;;;12.70;99.90;;;;;;7585720;19;20283;-83
2023/05/20 05:40:12;;;;;;;49.22;28.35;;;12.80;99.90;;;;;;7596752;19;20060;-82
2023/05/20 05:42:44;;;;;;;50.75;27.25;;;12.80;99.90;;;;;;7571045;19;20014;-83
2023/05/20 05:45:17;;;;;;;50.45;28.67;;;12.80;99.90;;;;;;7588703;19;20042;-83
2023/05/20 05:47:49;;;;;;;52.30;28.67;;;12.80;99.90;;;;;;7605578;19;20018;-83
2023/05/20 05:50:22;;;;;;;51.60;28.33;;;12.80;99.90;;;;;;7584902;19;20516;-83
2023/05/20 05:52:54;;;;;;;49.00;26.92;;;12.80;99.90;;;;;;7599314;19;20041;-83
2023/05/20 05:55:27;;;;;;;51.93;27.37;;;12.90;99.90;;;;;;7594142;19;20033;-83
2023/05/20 05:58:00;;;;;;;53.15;27.85;;;12.90;99.90;;;;;;7598570;19;20633;-83
2023/05/20 06:00:34;;;;;;;49.65;25.67;;;12.80;99.90;;;;;;7587693;19;20041;-83
2023/05/20 06:03:06;;;;;;;46.72;26.08;;;12.90;99.90;;;;;;7588414;19;20094;-83
2023/05/20 06:05:45;;;;;;;43.50;26.75;;;12.90;99.90;;;;;;7596240;19;20026;-83
2023/05/20 06:08:17;;;;;;;50.95;26.45;;;13.00;99.90;;;;;;7580383;19;20959;-83
2023/05/20 06:10:49;;;;;;;55.42;26.30;;;13.00;99.90;;;;;;7556574;19;20094;-83
2023/05/20 06:13:23;;;;;;;46.78;25.80;;;13.10;99.90;;;;;;7583962;19;20052;-82
2023/05/20 06:15:55;;;;;;;39.63;23.60;;;13.10;99.90;;;;;;7579443;19;20026;-83
2023/05/20 06:18:29;;;;;;;40.95;22.98;;;13.10;99.90;;;;;;7580329;19;20845;-83
2023/05/20 06:21:06;;;;;;;39.10;24.17;;;13.20;99.90;;;;;;7576940;19;20026;-84
2023/05/20 06:23:38;;;;;;;38.13;23.55;;;13.20;99.90;;;;;;7583888;19;20034;-83
2023/05/20 06:26:14;;;;;;;42.80;24.48;;;13.20;99.90;;;;;;7593453;19;20029;-84
2023/05/20 06:28:47;;;;;;;40.33;24.05;;;13.30;99.90;;;;;;7583449;19;20039;-83
2023/05/20 06:31:19;;;;;;;38.55;23.10;;;13.30;99.90;;;;;;7593551;19;20414;-83
2023/05/20 06:33:52;;;;;;;37.25;22.38;;;13.30;99.90;;;;;;7597072;19;20058;-83
2023/05/20 06:36:25;;;;;;;38.13;22.50;;;13.30;99.90;;;;;;7573914;19;20022;-83
2023/05/20 06:38:58;;;;;;;35.30;21.75;;;13.40;99.90;;;;;;7602001;19;20985;-83
2023/05/20 06:41:30;;;;;;;36.17;22.58;;;13.30;99.90;;;;;;7593090;19;20110;-83
2023/05/20 06:44:11;;;;;;;36.88;21.90;;;13.30;99.90;;;;;;7584292;19;20037;-83
2023/05/20 06:47:02;;;;;;;35.78;21.00;;;13.30;99.90;;;;;;7583280;19;20473;-83
2023/05/20 06:49:36;;;;;;;34.72;21.08;;;13.30;99.90;;;;;;7570247;19;20011;-83
2023/05/20 06:52:08;;;;;;;32.55;20.23;;;13.30;99.90;;;;;;7586949;19;20014;-83
2023/05/20 06:54:40;;;;;;;34.83;22.02;;;13.40;99.90;;;;;;7585902;19;20022;-83
2023/05/20 06:57:14;;;;;;;39.22;23.17;;;13.50;99.90;;;;;;7597383;19;20011;-83
2023/05/20 06:59:47;;;;;;;42.92;23.60;;;13.60;99.90;;;;;;7602386;19;22162;-83
2023/05/20 07:02:21;;;;;;;43.85;23.00;;;13.60;99.90;;;;;;7567383;19;20021;-83
2023/05/20 07:04:53;;;;;;;44.10;24.05;;;13.60;99.90;;;;;;7597818;19;20021;-83
2023/05/20 07:07:25;;;;;;;41.42;25.60;;;13.70;99.90;;;;;;7576258;19;20124;-84
2023/05/20 07:09:58;;;;;;;44.45;23.85;;;13.60;99.90;;;;;;7572276;19;20021;-84
2023/05/20 07:12:31;;;;;;;42.67;22.85;;;13.60;99.90;;;;;;7586860;19;20014;-83
2023/05/20 07:15:06;;;;;;;40.15;24.65;;;13.70;99.90;;;;;;7598826;19;20010;-83
2023/05/20 07:17:39;;;;;;;37.17;23.83;;;13.60;99.90;;;;;;7598295;19;20014;-83
2023/05/20 07:20:12;;;;;;;40.28;24.42;;;13.60;99.90;;;;;;7631258;19;19999;-83
2023/05/20 07:22:44;;;;;;;40.22;24.88;;;13.70;99.90;;;;;;7635457;19;20020;-83
2023/05/20 07:25:25;;;;;;;34.55;22.60;;;13.80;99.90;;;;;;7637846;19;20020;-83
2023/05/20 07:27:59;;;;;;;35.78;22.20;;;14.00;99.90;;;;;;7631979;19;20014;-83
2023/05/20 07:30:31;;;;;;;33.72;21.25;;;14.10;99.90;;;;;;7611494;19;20014;-82
2023/05/20 07:33:18;;;;;;;33.95;21.95;;;14.30;99.90;;;;;;7600223;19;20029;-84
2023/05/20 07:35:53;;;;;;;35.42;20.75;;;14.40;99.90;;;;;;7553616;19;20070;-84
2023/05/20 07:38:27;;;;;;;28.27;19.23;;;14.50;99.90;;;;;;7552719;19;20022;-84
2023/05/20 07:41:04;;;;;;;33.70;19.95;;;14.70;99.90;;;;;;7587096;19;20029;-84
2023/05/20 07:43:36;;;;;;;30.40;20.43;;;14.70;99.90;;;;;;7600911;19;20014;-84
2023/05/20 07:46:09;;;;;;;27.02;18.52;;;14.70;99.90;;;;;;7585741;19;20440;-85
2023/05/20 07:48:42;;;;;;;29.48;18.38;;;14.70;99.90;;;;;;7611542;19;20043;-83
2023/05/20 07:51:15;;;;;;;28.35;17.92;;;14.80;99.90;;;;;;7587386;19;20011;-84
2023/05/20 07:53:48;;;;;;;28.75;17.70;;;14.90;99.90;;;;;;7590342;19;20084;-84
2023/05/20 07:56:20;;;;;;;24.48;17.63;;;15.10;99.90;;;;;;7589142;19;20033;-84
2023/05/20 07:58:58;;;;;;;28.85;19.10;;;15.30;99.90;;;;;;7582379;19;20014;-84
2023/05/20 08:01:34;;;;;;;27.15;17.52;;;15.30;99.90;;;;;;7583371;19;20029;-84
2023/05/20 08:04:07;;;;;;;;;;;15.40;99.90;;;;;;7571168;19;20022;-83
2023/05/20 08:06:43;;;;;;;23.73;16.55;;;15.50;99.90;;;;;;7547565;19;19927;-85
2023/05/20 08:09:24;;;;;;;25.90;16.67;;;15.60;99.90;;;;;;7578196;19;20142;-85
2023/05/20 08:11:59;;;;;;;27.42;17.13;;;15.70;99.90;;;;;;7583057;19;20022;-84
2023/05/20 08:14:32;;;;;;;23.98;17.05;;;15.80;99.90;;;;;;7567461;19;20011;-85
2023/05/20 08:17:04;;;;;;;23.33;16.15;;;16.00;99.90;;;;;;7582908;19;20098;-84
2023/05/20 08:19:37;;;;;;;22.30;15.83;;;16.20;99.90;;;;;;7568731;19;23329;-84
2023/05/20 08:22:11;;;;;;;23.23;14.70;;;16.20;99.90;;;;;;7574604;19;20015;-87
2023/05/20 08:24:45;;;;;;;25.52;15.07;;;16.30;99.90;;;;;;7593445;19;20014;-85
2023/05/20 08:27:17;;;;;;;23.83;14.57;;;16.40;99.90;;;;;;7597538;19;20019;-84
2023/05/20 08:29:52;;;;;;;20.83;14.60;;;16.60;99.90;;;;;;7600000;19;20018;-86
2023/05/20 08:32:25;;;;;;;20.75;13.95;;;16.60;99.90;;;;;;7589086;19;20014;-85
2023/05/20 08:35:00;;;;;;;23.52;14.18;;;16.80;99.90;;;;;;7587941;19;20010;-84
2023/05/20 08:37:33;;;;;;;22.80;12.98;;;16.90;99.90;;;;;;7556051;19;20466;-85
2023/05/20 08:40:08;;;;;;;17.40;13.02;;;17.00;99.90;;;;;;7560556;19;20071;-85
2023/05/20 08:42:43;;;;;;;17.25;13.30;;;17.00;99.90;;;;;;7598729;19;20015;-85
2023/05/20 08:45:19;;;;;;;16.92;12.23;;;17.10;99.90;;;;;;7586216;19;20037;-85
2023/05/20 08:47:53;;;;;;;15.48;11.13;;;17.10;99.90;;;;;;7590158;19;20018;-85
2023/05/20 08:50:26;;;;;;;15.77;10.75;;;17.20;99.90;;;;;;7589871;19;20023;-83
2023/05/20 08:53:00;;;;;;;16.10;9.65;;;17.30;99.90;;;;;;7593308;19;20033;-83
2023/05/20 08:55:38;;;;;;;15.52;10.68;;;17.30;99.90;;;;;;7582712;19;20850;-83
2023/05/20 08:58:11;;;;;;;12.77;9.57;;;17.40;99.90;;;;;;7614849;19;20035;-84
2023/05/20 09:00:43;;;;;;;13.00;9.75;;;17.50;99.90;;;;;;7614672;19;20015;-84
2023/05/20 09:03:16;;;;;;;10.88;8.32;;;17.60;99.90;;;;;;7607763;19;20575;-85
2023/05/20 09:05:49;;;;;;;12.32;9.00;;;17.70;99.90;;;;;;7611330;19;20014;-85
2023/05/20 09:08:25;;;;;;;12.18;8.32;;;17.90;99.90;;;;;;7613476;19;20060;-81
2023/05/20 09:10:57;;;;;;;13.20;8.48;;;18.00;99.90;;;;;;7616501;19;20011;-82
2023/05/20 09:13:33;;;;;;;13.18;8.82;;;18.00;99.90;;;;;;7611805;19;20482;-82
2023/05/20 09:16:05;;;;;;;12.68;7.68;;;18.10;99.90;;;;;;7616642;19;20040;-81
2023/05/20 09:18:39;;;;;;;10.27;7.78;;;18.10;99.90;;;;;;7618204;19;20022;-81
2023/05/20 09:21:11;;;;;;;12.90;7.43;;;18.10;99.60;;;;;;7615341;19;20019;-81
2023/05/20 09:23:48;;;;;;;10.90;7.40;;;18.20;99.50;;;;;;7612316;19;20019;-83
2023/05/20 09:26:20;;;;;;;12.93;8.07;;;18.20;99.10;;;;;;7617055;19;20974;-82
2023/05/20 09:28:55;;;;;;;11.05;7.20;;;18.30;99.80;;;;;;7606669;19;20050;-83
2023/05/20 09:31:30;;;;;;;11.57;7.68;;;18.40;98.70;;;;;;7611413;19;20913;-82
2023/05/20 09:34:02;;;;;;;10.65;7.32;;;18.40;98.20;;;;;;7619715;19;20788;-82
2023/05/20 09:36:35;;;;;;;10.88;7.22;;;18.50;97.60;;;;;;7618761;19;20039;-80
2023/05/20 09:39:12;;;;;;;10.77;7.10;;;18.60;98.50;;;;;;7617098;19;20010;-81
2023/05/20 09:41:55;;;;;;;9.77;6.65;;;18.60;97.90;;;;;;7606590;19;20287;-85
2023/05/20 09:44:28;;;;;;;8.75;6.03;;;18.90;97.50;;;;;;7616814;19;20015;-83
2023/05/20 09:47:01;;;;;;;11.27;6.38;;;19.10;96.70;;;;;;7613477;19;20089;-83
2023/05/20 09:49:36;;;;;;;9.00;6.10;;;19.40;95.70;;;;;;7599607;19;20042;-83
2023/05/20 09:52:09;;;;;;;7.75;6.25;;;19.30;93.90;;;;;;7601899;19;20022;-83
2023/05/20 09:54:43;;;;;;;10.73;7.03;;;19.30;93.50;;;;;;7606919;19;20018;-83
2023/05/20 09:57:15;;;;;;;7.53;5.45;;;19.20;93.30;;;;;;7612472;19;20110;-85
2023/05/20 09:59:50;;;;;;;8.13;5.90;;;19.20;93.50;;;;;;7608642;19;20661;-83
2023/05/20 10:02:22;;;;;;;11.00;6.13;;;19.20;93.00;;;;;;7602902;19;20017;-84
2023/05/20 10:04:56;;;;;;;11.35;4.82;;;19.10;92.90;;;;;;7607737;19;20111;-84
2023/05/20 10:08:01;;;;;;;5.53;4.80;;;19.30;91.60;;;;;;7618377;19;20025;-84
2023/05/20 10:10:40;;;;;;;6.05;5.07;;;19.40;90.60;;;;;;7612794;19;20019;-84
2023/05/20 10:13:40;;;;;;;7.95;5.57;;;19.40;91.10;;;;;;7589889;19;20014;-84
2023/05/20 10:16:56;;;;;;;6.72;5.53;;;19.50;90.80;;;;;;7615592;19;20070;-84
2023/05/20 10:19:32;;;;;;;11.95;5.88;;;19.50;90.80;;;;;;7602631;19;20121;-85
2023/05/20 10:22:10;;;;;;;9.25;6.20;;;19.70;91.10;;;;;;7605494;19;20014;-84
2023/05/20 10:24:43;;;;;;;7.88;6.30;;;20.30;90.90;;;;;;7587547;19;20046;-84
2023/05/20 10:27:17;;;;;;;7.53;5.70;;;20.90;89.50;;;;;;7603746;19;20061;-81
2023/05/20 10:29:56;;;;;;;11.70;5.82;;;21.60;88.60;;;;;;7603847;19;20039;-82
2023/05/20 10:32:31;;;;;;;6.50;5.43;;;21.90;85.40;;;;;;7600395;19;20666;-82
2023/05/20 10:35:08;;;;;;;8.02;5.28;;;22.10;83.90;;;;;;7598862;19;20086;-81
2023/05/20 10:37:44;;;;;;;7.65;5.30;;;22.30;82.20;;;;;;7596054;19;20015;-81
2023/05/20 10:40:18;;;;;;;9.02;5.65;;;22.10;81.90;;;;;;7589131;19;20023;-82
2023/05/20 10:42:51;;;;;;;6.05;4.72;;;22.10;81.60;;;;;;7606942;19;20014;-81
2023/05/20 10:45:26;;;;;;;9.27;4.83;;;21.90;79.00;;;;;;7611298;19;20018;-82
2023/05/20 10:47:58;;;;;;;7.10;5.32;;;21.60;77.90;;;;;;7631429;19;20044;-82
2023/05/20 10:50:36;;;;;;;8.63;6.30;;;21.40;78.50;;;;;;7638419;19;20007;-81
2023/05/20 10:53:13;;;;;;;7.80;5.40;;;21.20;79.10;;;;;;7634405;19;20348;-81
2023/05/20 10:56:05;;;;;;;8.43;5.00;;;;;;;;;;7620394;19;20014;-81
2023/05/20 10:58:38;;;;;;;10.50;6.82;;;;;;;;;;7618869;19;20030;-80
2023/05/20 11:01:12;;;;;;;5.78;5.13;;;21.30;80.50;;;;;;7629459;19;20021;-87
2023/05/20 11:03:48;;;;;;;7.82;5.05;;;22.60;78.70;;;;;;7650732;19;20546;-88
2023/05/20 11:06:27;;;;;;;6.63;5.15;;;22.80;77.00;;;;;;7659308;19;20058;-87
2023/05/20 11:09:06;;;;;;;6.72;5.20;;;23.10;76.00;;;;;;7646112;19;20011;-86
2023/05/20 11:11:38;;;;;;;6.85;5.20;;;23.30;73.80;;;;;;7631534;19;20015;-81
2023/05/20 11:14:13;;;;;;;7.65;5.10;;;23.30;75.30;;;;;;7624874;19;20910;-81
2023/05/20 11:16:49;;;;;;;8.63;4.65;;;23.40;75.00;;;;;;7611596;19;21943;-81
2023/05/20 11:19:22;;;;;;;4.97;4.25;;;23.60;72.60;;;;;;7610443;19;20030;-85
2023/05/20 11:21:55;;;;;;;6.28;4.32;;;23.80;72.40;;;;;;7608525;19;22862;-85
2023/05/20 11:24:27;;;;;;;5.45;3.90;;;23.90;69.10;;;;;;7599087;19;20018;-88
2023/05/20 11:27:01;;;;;;;5.45;4.30;;;23.90;68.90;;;;;;7595849;19;20015;-85
2023/05/20 11:29:34;;;;;;;6.10;4.20;;;24.10;67.80;;;;;;7604703;19;21690;-85
2023/05/20 11:32:07;;;;;;;4.72;3.70;;;24.10;68.00;;;;;;7597362;19;20019;-84
2023/05/20 11:34:39;;;;;;;5.35;3.80;;;24.10;68.10;;;;;;7600241;19;20014;-85
2023/05/20 11:37:12;;;;;;;4.53;4.07;;;24.10;66.60;;;;;;7603610;19;20059;-84
2023/05/20 11:39:44;;;;;;;4.47;4.03;;;24.00;65.90;;;;;;7591739;19;20010;-86
2023/05/20 11:42:17;;;;;;;5.82;4.25;;;24.10;65.60;;;;;;7581788;19;20034;-83
2023/05/20 11:44:49;;;;;;;5.68;4.20;;;24.30;65.60;;;;;;7590422;19;20020;-85
2023/05/20 11:47:27;;;;;;;4.97;3.80;;;24.40;65.00;;;;;;7624754;19;20074;-84
2023/05/20 11:50:00;;;;;;;4.85;4.10;;;24.50;64.40;;;;;;7597371;19;20641;-84
2023/05/20 11:52:33;;;;;;;4.82;4.32;;;24.60;64.00;;;;;;7597593;19;20473;-84
2023/05/20 11:55:09;;;;;;;6.07;4.03;;;24.70;64.40;;;;;;7600721;19;20026;-87
2023/05/20 11:57:42;;;;;;;7.85;3.92;;;24.80;63.60;;;;;;7594017;19;20022;-83
2023/05/20 12:00:15;;;;;;;6.53;4.18;;;24.80;63.10;;;;;;7603373;19;20764;-84
2023/05/20 12:02:47;;;;;;;5.55;4.20;;;24.80;63.10;;;;;;7596372;19;20010;-84
2023/05/20 12:05:20;;;;;;;5.82;4.32;;;25.00;62.90;;;;;;7598678;19;20025;-83
2023/05/20 12:07:52;;;;;;;4.65;3.95;;;25.00;62.50;;;;;;7595090;19;20085;-85
2023/05/20 12:10:26;;;;;;;5.60;4.70;;;25.20;61.90;;;;;;7587395;19;20017;-85
2023/05/20 12:13:00;;;;;;;4.95;4.30;;;25.00;61.80;;;;;;7598264;19;20022;-84
2023/05/20 12:15:32;;;;;;;8.77;4.32;;;25.20;61.90;;;;;;7607804;19;20022;-84
2023/05/20 12:18:04;;;;;;;5.88;4.38;;;25.20;62.00;;;;;;7597523;19;20014;-85
2023/05/20 12:20:37;;;;;;;4.53;4.13;;;25.20;62.20;;;;;;7598264;19;20059;-84
2023/05/20 12:23:10;;;;;;;5.80;4.35;;;25.20;61.40;;;;;;7600868;19;20027;-87
2023/05/20 12:25:44;;;;;;;;;;;25.20;61.80;;;;;;7596364;19;20819;-83
2023/05/20 12:28:17;;;;;;;7.13;4.90;;;25.10;60.50;;;;;;7601241;19;19918;-85
2023/05/20 12:30:49;;;;;;;8.32;5.22;;;25.10;61.90;;;;;;7592878;19;20015;-82
2023/05/20 12:33:21;;;;;;;6.30;4.72;;;25.00;61.40;;;;;;7596471;19;20031;-83
2023/05/20 12:35:54;;;;;;;6.50;5.20;;;24.90;60.80;;;;;;7585181;19;21167;-82
2023/05/20 12:38:26;;;;;;;7.18;4.97;;;24.80;60.90;;;;;;7584367;19;24084;-82
2023/05/20 12:40:59;;;;;;;9.48;6.00;;;24.90;60.50;;;;;;7580364;19;20011;-82
2023/05/20 12:43:31;;;;;;;10.50;6.43;;;24.80;60.50;;;;;;7579332;19;20038;-84
2023/05/20 12:46:07;;;;;;;10.65;6.40;;;24.90;60.20;;;;;;7584285;19;20316;-84
2023/05/20 12:48:40;;;;;;;9.18;6.05;;;25.20;59.80;;;;;;7596264;19;20017;-84
2023/05/20 12:51:13;;;;;;;7.20;5.97;;;25.40;59.80;;;;;;7599117;19;20048;-85
2023/05/20 12:53:46;;;;;;;10.07;5.78;;;25.80;58.70;;;;;;7586812;19;20065;-85
2023/05/20 12:56:18;;;;;;;11.77;6.70;;;26.10;58.40;;;;;;7595334;19;20022;-83
2023/05/20 12:58:50;;;;;;;8.27;6.50;;;26.40;57.80;;;;;;7585635;19;20018;-86
2023/05/20 13:01:23;;;;;;;8.07;6.68;;;26.30;57.30;;;;;;7595643;19;20020;-84
2023/05/20 13:03:55;;;;;;;10.87;8.03;;;26.30;57.90;;;;;;7586005;19;22750;-82
2023/05/20 13:06:27;;;;;;;12.13;8.02;;;26.20;58.70;;;;;;7599220;19;20014;-82
2023/05/20 13:08:59;;;;;;;12.10;8.80;;;25.80;59.40;;;;;;7590409;19;21454;-83